Time;durP1;ratioP1;P1;durP2;ratioP2;P2;SDS_P1;SDS_P2;PMS_P1;PMS_P2;Temp;Humidity;BMP_temperature;BMP_pressure;BME280_temperature;BME280_humidity;BME280_pressure;Samples;Min_cycle;Max_cycle;Signal;HPM_P1;HPM_P2
2022/09/25 00:00:47;;;;;;;3.65;1.15;;;;;;;10.17;67.24;100718.91;4993698;28;20081;-39
2022/09/25 00:03:15;;;;;;;4.03;1.33;;;;;;;10.16;67.73;100717.16;5009354;28;20046;-40
2022/09/25 00:05:44;;;;;;;3.40;1.08;;;;;;;10.16;67.33;100717.16;5002272;28;20116;-41
2022/09/25 00:08:12;;;;;;;3.85;1.27;;;;;;;10.14;67.14;100708.53;5000319;28;20125;-39
2022/09/25 00:10:41;;;;;;;3.38;1.13;;;;;;;10.14;66.87;100708.53;4999987;28;20073;-39
2022/09/25 00:13:09;;;;;;;4.60;1.48;;;;;;;10.12;67.03;100710.22;4990323;28;20078;-39
2022/09/25 00:15:36;;;;;;;6.13;1.50;;;;;;;10.11;66.83;100708.47;4997682;28;20058;-41
2022/09/25 00:18:03;;;;;;;3.17;1.20;;;;;;;10.09;67.45;100715.34;4992285;28;20473;-39
2022/09/25 00:20:29;;;;;;;4.93;1.52;;;;;;;10.09;67.49;100710.16;4992100;28;20069;-41
2022/09/25 00:22:57;;;;;;;5.20;1.52;;;;;;;10.08;67.43;100705.84;4998500;28;20077;-42
2022/09/25 00:25:26;;;;;;;7.30;1.40;;;;;;;10.07;67.27;100711.91;4993989;28;20054;-41
2022/09/25 00:27:54;;;;;;;3.92;1.05;;;;;;;10.05;67.57;100711.00;4995287;28;20116;-40
2022/09/25 00:30:22;;;;;;;5.03;1.23;;;;;;;10.02;67.63;100715.31;4991594;28;20062;-42
2022/09/25 00:32:49;;;;;;;4.10;1.58;;;;;;;10.01;67.69;100712.69;4994035;28;20061;-40
2022/09/25 00:35:16;;;;;;;7.05;1.60;;;;;;;10.00;67.77;100714.41;4994796;28;20057;-41
2022/09/25 00:37:42;;;;;;;4.00;1.58;;;;;;;10.00;67.68;100717.00;4995071;28;20070;-42
2022/09/25 00:40:09;;;;;;;6.13;1.83;;;;;;;9.99;67.41;100720.44;4995310;28;20069;-42
2022/09/25 00:42:36;;;;;;;5.32;2.15;;;;;;;9.97;67.96;100711.78;4997307;28;20056;-43
2022/09/25 00:45:12;;;;;;;6.57;1.67;;;;;;;9.96;67.85;100725.59;4990564;28;20457;-40
2022/09/25 00:52:57;;;;;;;5.65;2.10;;;;;;;9.91;67.79;100724.66;5043781;27;20398;-39
2022/09/25 00:55:25;;;;;;;6.95;2.25;;;;;;;9.90;67.82;100722.94;5023756;28;20970;-40
2022/09/25 00:57:55;;;;;;;7.47;2.55;;;;;;;9.87;67.87;100720.31;5043234;28;20072;-39
2022/09/25 01:00:22;;;;;;;6.05;2.70;;;;;;;9.85;67.39;100722.00;5034330;28;20103;-39
2022/09/25 01:02:52;;;;;;;5.75;2.10;;;;;;;9.84;67.71;100725.44;5039114;28;20112;-40
2022/09/25 01:05:21;;;;;;;;;;;;;;;9.66;68.35;100726.97;5028802;28;20061;-46
2022/09/25 01:07:49;;;;;;;7.85;2.88;;;;;;;9.71;67.96;100717.56;5039191;28;19948;-39
2022/09/25 01:10:18;;;;;;;3.83;2.60;;;;;;;9.71;67.78;100725.31;5040618;28;20138;-39
2022/09/25 01:12:48;;;;;;;7.80;2.40;;;;;;;9.69;67.79;100727.00;5044282;28;20068;-37
2022/09/25 01:15:19;;;;;;;7.63;2.65;;;;;;;9.68;67.95;100716.63;5036380;28;20077;-39
2022/09/25 01:31:07;;;;;;;6.10;1.65;;;;;;;9.62;69.24;100709.66;5092055;27;20404;-39
2022/09/25 01:33:41;;;;;;;4.03;2.30;;;;;;;9.61;69.28;100718.28;5055091;28;20044;-42
2022/09/25 01:36:17;;;;;;;4.32;1.90;;;;;;;9.57;69.19;100714.81;5047213;28;20510;-38
2022/09/25 01:39:23;;;;;;;5.15;2.10;;;;;;;9.50;69.42;100713.84;5051893;28;20053;-39
2022/09/25 01:42:01;;;;;;;5.35;1.95;;;;;;;9.51;69.30;100714.72;5029225;28;20396;-42
2022/09/25 01:44:33;;;;;;;5.30;2.08;;;;;;;9.50;69.15;100706.09;5053641;28;20488;-39
2022/09/25 01:47:12;;;;;;;6.45;2.05;;;;;;;9.45;69.04;100705.16;5042846;28;20520;-40
2022/09/25 01:49:47;;;;;;;5.00;1.70;;;;;;;9.45;69.17;100706.88;5052911;28;20176;-40
2022/09/25 01:52:19;;;;;;;8.55;2.15;;;;;;;9.42;69.65;100706.88;5053086;28;20044;-40
2022/09/25 01:54:50;;;;;;;5.63;1.50;;;;;;;9.39;69.42;100702.50;5049482;28;21765;-41
2022/09/25 02:00:03;;;;;;;9.25;3.45;;;;;;;9.79;68.96;100706.44;5000984;28;20924;-38
2022/09/25 02:02:40;;;;;;;8.57;2.05;;;;;;;9.48;69.70;100707.81;4989340;28;21227;-39
2022/09/25 02:05:13;;;;;;;5.72;2.97;;;;;;;9.42;69.87;100712.03;4992037;28;20057;-41
2022/09/25 02:07:47;;;;;;;7.13;3.17;;;;;;;9.37;70.27;100710.25;4988458;28;20145;-42
2022/09/25 02:10:20;;;;;;;5.45;3.58;;;;;;;9.35;69.81;100705.91;4985778;28;20141;-42
2022/09/25 02:12:52;;;;;;;9.18;2.13;;;;;;;9.33;69.81;100702.44;4987505;28;20101;-39
2022/09/25 02:21:00;;;;;;;7.68;2.28;;;;;;;9.28;69.72;100715.28;5028365;28;20107;-41
2022/09/25 02:23:39;;;;;;;4.63;1.98;;;;;;;9.24;70.24;100709.22;5037697;28;20072;-40
2022/09/25 02:26:13;;;;;;;14.45;2.17;;;;;;;9.24;70.67;100700.59;5041227;28;20041;-38
2022/09/25 02:28:41;;;;;;;7.53;2.35;;;;;;;9.22;69.84;100700.56;5039691;28;20053;-40
2022/09/25 02:31:11;;;;;;;8.93;1.85;;;;;;;9.23;70.07;100711.78;5041181;28;20144;-37
2022/09/25 02:33:38;;;;;;;8.35;2.10;;;;;;;9.22;70.72;100710.91;5039804;28;20084;-39
2022/09/25 02:36:05;;;;;;;4.95;2.13;;;;;;;9.19;70.42;100710.84;5041010;28;20079;-41
2022/09/25 02:38:33;;;;;;;7.57;1.98;;;;;;;9.17;70.39;100697.06;5040263;28;20147;-41
2022/09/25 02:41:30;;;;;;;6.75;1.85;;;;;;;9.12;70.85;100698.72;5040108;28;20127;-41
2022/09/25 02:52:21;;;;;;;9.60;5.43;;;;;;;9.09;70.69;100703.84;5088533;27;20399;-40
2022/09/25 02:54:57;;;;;;;12.82;5.53;;;;;;;9.08;70.58;100708.13;5057635;28;20571;-39
2022/09/25 03:00:06;;;;;;;10.05;3.47;;;;;;;9.05;70.38;100702.91;5053224;28;20415;-38
2022/09/25 03:02:35;;;;;;;8.88;3.00;;;;;;;9.04;70.07;100703.78;4986666;28;20073;-41
2022/09/25 03:05:03;;;;;;;5.40;2.90;;;;;;;9.02;71.08;100702.88;4982316;28;20081;-41
2022/09/25 03:08:36;;;;;;;9.85;2.08;;;;;;;9.03;70.27;100693.41;4981467;28;20663;-39
2022/09/25 03:10:18;;;;;;;7.50;1.60;;;;;;;8.99;70.33;100698.53;4979928;28;20133;-41
2022/09/25 03:12:45;;;;;;;6.60;2.42;;;;;;;8.98;70.59;100694.22;4980836;28;20054;-39
2022/09/25 03:15:12;;;;;;;7.13;1.85;;;;;;;8.97;70.72;100691.59;4980442;28;20085;-40
2022/09/25 03:17:38;;;;;;;5.50;1.52;;;;;;;8.98;70.66;100695.94;4995434;28;20050;-41
2022/09/25 03:20:09;;;;;;;6.30;1.88;;;;;;;8.98;71.29;100690.75;4983767;28;20050;-41
2022/09/25 03:22:36;;;;;;;5.03;2.22;;;;;;;8.97;70.66;100689.91;4980511;28;20051;-38
2022/09/25 03:25:04;;;;;;;7.57;2.10;;;;;;;8.98;70.82;100686.47;4993398;28;20520;-43
2022/09/25 03:27:30;;;;;;;5.30;1.30;;;;;;;8.99;71.12;100692.53;4984194;28;20085;-40
2022/09/25 03:29:57;;;;;;;7.65;2.33;;;;;;;8.98;70.50;100689.06;4985320;28;20042;-40
2022/09/25 03:32:24;;;;;;;6.25;2.28;;;;;;;8.98;70.93;100685.59;4982857;28;20491;-39
2022/09/25 03:34:50;;;;;;;8.35;1.63;;;;;;;8.97;70.70;100684.75;4983151;28;20043;-40
2022/09/25 03:37:17;;;;;;;11.05;2.05;;;;;;;8.97;71.04;100691.59;4982423;28;20078;-42
2022/09/25 03:39:43;;;;;;;8.30;2.00;;;;;;;8.96;70.41;100676.97;4985057;28;20109;-41
2022/09/25 03:42:10;;;;;;;4.75;1.73;;;;;;;8.95;70.95;100683.84;4984857;28;20125;-41
2022/09/25 03:44:36;;;;;;;6.82;1.92;;;;;;;8.93;71.55;100677.78;4982002;28;20043;-40
2022/09/25 03:47:03;;;;;;;5.40;1.95;;;;;;;8.91;70.34;100674.31;4982460;28;20046;-39
2022/09/25 03:49:29;;;;;;;10.73;2.03;;;;;;;8.92;70.87;100680.34;4982404;28;20129;-40
2022/09/25 03:51:56;;;;;;;7.15;2.30;;;;;;;8.88;69.82;100679.41;4981357;28;20719;-41
2022/09/25 03:54:22;;;;;;;4.65;1.90;;;;;;;8.85;70.07;100680.25;4981019;28;20457;-39
2022/09/25 03:56:50;;;;;;;5.10;2.30;;;;;;;8.82;70.80;100680.19;4982732;28;20615;-40
2022/09/25 03:59:17;;;;;;;7.32;2.22;;;;;;;8.79;70.02;100672.44;4981354;28;20517;-38
2022/09/25 04:01:46;;;;;;;4.25;2.03;;;;;;;8.79;70.17;100671.56;4982656;28;20125;-38
2022/09/25 04:04:13;;;;;;;4.20;1.60;;;;;;;8.77;69.78;100675.81;4979563;28;20055;-42
2022/09/25 04:06:39;;;;;;;8.98;1.73;;;;;;;8.71;69.63;100664.56;4978257;28;20078;-40
2022/09/25 04:09:06;;;;;;;6.82;3.20;;;;;;;8.69;70.22;100674.00;4979993;28;20042;-39
2022/09/25 04:11:33;;;;;;;4.72;1.95;;;;;;;8.68;70.44;100667.09;4968650;28;20126;-39
2022/09/25 04:14:00;;;;;;;5.05;2.00;;;;;;;8.66;69.77;100671.38;4968211;28;20137;-39
2022/09/25 04:16:30;;;;;;;7.30;1.65;;;;;;;8.65;69.84;100667.03;4965691;28;20102;-40
2022/09/25 04:18:57;;;;;;;5.63;2.13;;;;;;;8.64;70.17;100669.63;4968535;28;20060;-40
2022/09/25 04:21:23;;;;;;;4.68;1.75;;;;;;;8.61;70.36;100665.25;4966183;28;20153;-40
2022/09/25 04:26:36;;;;;;;9.32;2.17;;;;;;;8.56;69.80;100677.22;4967039;28;20046;-42
2022/09/25 04:29:03;;;;;;;6.95;1.95;;;;;;;8.55;70.15;100670.34;4966998;28;20138;-39
2022/09/25 04:31:31;;;;;;;9.80;2.20;;;;;;;8.53;70.27;100671.97;4963641;28;20046;-40
2022/09/25 04:33:58;;;;;;;7.18;2.28;;;;;;;8.52;70.97;100671.13;4967767;28;20073;-40
2022/09/25 04:36:24;;;;;;;6.70;1.75;;;;;;;8.51;70.64;100668.53;4966003;28;20101;-39
2022/09/25 04:38:51;;;;;;;5.95;2.15;;;;;;;8.52;70.33;100675.41;4967906;28;20146;-40
2022/09/25 04:41:18;;;;;;;6.43;2.03;;;;;;;8.51;70.33;100681.44;4967210;28;20043;-43
2022/09/25 04:43:46;;;;;;;4.78;2.20;;;;;;;8.48;70.23;100675.34;4967734;28;20047;-42
2022/09/25 04:46:14;;;;;;;6.05;1.65;;;;;;;8.47;71.10;100676.22;4968880;28;20070;-40
2022/09/25 04:48:47;;;;;;;4.55;1.98;;;;;;;8.46;70.73;100679.66;4966847;28;20147;-39
2022/09/25 04:51:13;;;;;;;5.90;2.50;;;;;;;8.45;70.93;100677.88;4969224;28;20047;-39
2022/09/25 04:53:40;;;;;;;8.73;2.10;;;;;;;8.44;70.39;100676.16;4967165;28;20086;-42
2022/09/25 04:56:08;;;;;;;5.85;1.95;;;;;;;8.43;70.37;100676.13;4967779;28;20074;-40
2022/09/25 04:58:46;;;;;;;8.85;1.98;;;;;;;8.43;70.77;100677.00;4968589;28;20054;-41
2022/09/25 05:01:14;;;;;;;7.72;2.78;;;;;;;8.43;70.03;100677.00;4962327;28;20457;-40
2022/09/25 05:03:41;;;;;;;6.32;1.92;;;;;;;8.41;70.43;100668.34;4966736;28;20134;-39
2022/09/25 05:06:08;;;;;;;6.25;1.85;;;;;;;8.40;70.34;100669.22;4965684;28;20391;-38
2022/09/25 05:08:34;;;;;;;6.05;1.92;;;;;;;8.38;70.04;100668.34;4966400;28;20141;-40
2022/09/25 05:11:02;;;;;;;6.55;2.05;;;;;;;8.37;70.58;100666.56;4967787;28;20109;-40
2022/09/25 05:13:29;;;;;;;7.45;1.83;;;;;;;8.33;70.65;100667.38;4967217;28;20047;-40
2022/09/25 05:15:56;;;;;;;7.07;1.75;;;;;;;8.31;70.73;100674.22;4967302;28;20051;-39
2022/09/25 05:18:24;;;;;;;7.38;2.22;;;;;;;8.28;70.85;100671.59;4967519;28;20122;-42
2022/09/25 05:20:52;;;;;;;7.22;1.77;;;;;;;8.25;71.04;100679.28;4962614;28;20074;-39
2022/09/25 05:23:20;;;;;;;3.05;1.52;;;;;;;8.21;71.14;100676.63;4966215;28;20046;-38
2022/09/25 05:25:55;;;;;;;8.52;2.30;;;;;;;8.19;70.03;100673.19;4968126;28;20078;-42
2022/09/25 05:28:23;;;;;;;5.93;3.08;;;;;;;8.20;70.28;100679.19;4964973;28;20430;-42
2022/09/25 05:30:50;;;;;;;5.55;1.83;;;;;;;8.19;70.48;100670.59;4962758;28;20046;-39
2022/09/25 05:33:17;;;;;;;7.97;2.17;;;;;;;8.19;70.00;100668.03;4965628;28;20700;-41
2022/09/25 05:35:45;;;;;;;3.88;1.80;;;;;;;8.19;70.37;100668.03;4966525;28;20047;-40
2022/09/25 05:38:11;;;;;;;6.40;2.10;;;;;;;8.21;70.57;100671.47;4965505;28;20615;-39
2022/09/25 05:40:38;;;;;;;6.65;2.13;;;;;;;8.21;69.95;100668.91;4967404;28;20483;-39
2022/09/25 05:43:05;;;;;;;7.10;1.92;;;;;;;8.26;70.70;100662.94;4964629;28;20138;-37
2022/09/25 05:45:34;;;;;;;11.70;2.88;;;;;;;8.29;70.38;100669.03;4965483;28;20387;-41
2022/09/25 05:48:04;;;;;;;9.48;2.80;;;;;;;8.29;70.79;100657.84;4967017;28;20074;-39
2022/09/25 05:50:32;;;;;;;6.43;2.25;;;;;;;8.33;70.28;100659.63;4965668;28;20567;-39
2022/09/25 05:53:02;;;;;;;7.50;1.88;;;;;;;8.36;70.16;100654.53;4966602;28;20130;-40
2022/09/25 05:55:29;;;;;;;6.75;2.22;;;;;;;8.38;70.64;100663.16;4967024;28;20125;-39
2022/09/25 05:58:03;;;;;;;8.02;2.47;;;;;;;8.39;70.17;100657.16;4966110;28;20058;-41
2022/09/25 06:00:32;;;;;;;7.75;2.33;;;;;;;8.43;70.95;100656.34;4962281;28;20546;-40
2022/09/25 06:03:00;;;;;;;4.90;1.75;;;;;;;8.45;69.92;100664.13;4965394;28;20483;-39
2022/09/25 06:05:27;;;;;;;6.07;2.47;;;;;;;8.47;70.45;100657.25;4963865;28;20054;-38
2022/09/25 06:07:54;;;;;;;5.25;1.80;;;;;;;8.48;69.76;100649.53;4964056;28;20654;-42
2022/09/25 06:10:21;;;;;;;4.30;1.63;;;;;;;8.53;70.59;100661.66;4963717;28;20089;-41
2022/09/25 06:12:48;;;;;;;6.47;2.33;;;;;;;8.52;70.15;100654.75;4967370;28;20051;-39
2022/09/25 06:15:15;;;;;;;5.55;2.50;;;;;;;8.54;70.98;100663.44;4965830;28;20145;-38
2022/09/25 06:17:41;;;;;;;5.78;2.15;;;;;;;8.55;70.58;100657.44;4963725;28;20129;-40
2022/09/25 06:20:10;;;;;;;4.82;1.40;;;;;;;8.58;70.40;100660.06;4966493;28;20074;-38
2022/09/25 06:22:43;;;;;;;7.28;1.90;;;;;;;8.59;70.40;100656.63;4961215;28;20051;-40
2022/09/25 06:25:09;;;;;;;4.05;1.50;;;;;;;8.62;70.96;100646.34;4962382;28;20491;-42
2022/09/25 06:27:36;;;;;;;4.57;1.80;;;;;;;8.64;70.97;100649.81;4960142;28;20663;-41
2022/09/25 06:30:04;;;;;;;3.35;1.48;;;;;;;8.69;71.05;100650.75;4967291;28;20141;-38
2022/09/25 06:32:31;;;;;;;5.82;1.45;;;;;;;8.73;71.63;100655.13;4965341;28;20058;-39
2022/09/25 06:34:57;;;;;;;5.32;1.70;;;;;;;8.79;71.07;100648.31;4966520;28;20137;-40
2022/09/25 06:37:24;;;;;;;11.85;1.80;;;;;;;8.84;70.67;100646.66;4961409;28;20121;-41
2022/09/25 06:39:50;;;;;;;4.15;1.50;;;;;;;8.89;71.32;100647.59;4961962;28;20070;-40
2022/09/25 06:42:17;;;;;;;6.30;2.13;;;;;;;8.94;70.98;100647.63;4965849;28;20415;-40
2022/09/25 06:44:43;;;;;;;5.72;1.40;;;;;;;8.96;71.14;100657.19;4965914;28;20135;-39
2022/09/25 06:47:12;;;;;;;10.50;1.65;;;;;;;9.00;71.17;100658.94;4964583;28;20129;-38
2022/09/25 06:49:45;;;;;;;4.78;2.13;;;;;;;9.05;70.39;100658.13;4964799;28;20461;-40
2022/09/25 06:52:11;;;;;;;7.88;1.83;;;;;;;9.11;71.09;100664.25;4963118;28;20050;-40
2022/09/25 06:54:38;;;;;;;6.43;1.58;;;;;;;9.16;70.99;100664.31;4966646;28;20150;-39
2022/09/25 06:57:11;;;;;;;4.80;1.75;;;;;;;9.24;70.73;100659.22;4967170;28;20046;-40
2022/09/25 06:59:38;;;;;;;6.82;1.27;;;;;;;9.31;70.98;100657.59;4966719;28;20082;-40
2022/09/25 07:04:52;;;;;;;4.05;1.27;;;;;;;9.45;70.87;100666.38;4957628;28;20558;-41
2022/09/25 07:07:19;;;;;;;5.40;1.42;;;;;;;9.55;70.40;100656.16;4961274;28;20166;-40
2022/09/25 07:09:47;;;;;;;6.28;1.17;;;;;;;9.62;70.59;100655.34;4963919;28;20054;-38
2022/09/25 07:12:16;;;;;;;7.57;1.98;;;;;;;9.68;70.48;100663.19;4961122;28;20073;-39
2022/09/25 07:14:45;;;;;;;5.18;1.50;;;;;;;9.74;70.28;100658.09;4960295;28;20054;-39
2022/09/25 07:17:13;;;;;;;5.80;1.90;;;;;;;9.82;70.23;100659.88;4962150;28;20047;-40
2022/09/25 07:19:39;;;;;;;7.95;2.00;;;;;;;9.89;70.23;100656.50;4966087;28;20514;-39
2022/09/25 07:22:06;;;;;;;6.30;1.90;;;;;;;9.97;70.00;100660.03;4962251;28;20081;-40
2022/09/25 07:24:32;;;;;;;7.53;2.03;;;;;;;10.06;70.02;100668.75;4965337;28;20074;-37
2022/09/25 07:26:59;;;;;;;5.53;1.40;;;;;;;10.11;70.29;100652.41;4966887;28;20140;-40
2022/09/25 07:29:26;;;;;;;7.78;1.60;;;;;;;10.18;69.88;100658.50;4964482;28;20708;-38
2022/09/25 07:31:52;;;;;;;5.13;1.92;;;;;;;10.25;69.83;100665.47;4963248;28;20487;-39
2022/09/25 07:34:19;;;;;;;3.05;1.13;;;;;;;10.33;69.95;100662.09;4964419;28;20122;-37
2022/09/25 07:36:46;;;;;;;4.28;1.88;;;;;;;10.39;70.17;100662.13;4964924;28;20047;-39
2022/09/25 07:39:13;;;;;;;5.35;1.40;;;;;;;10.47;69.92;100662.22;4962970;28;20067;-41
2022/09/25 07:41:44;;;;;;;4.93;1.20;;;;;;;10.55;70.20;100652.78;4964492;28;20243;-39
2022/09/25 07:44:10;;;;;;;8.35;1.10;;;;;;;10.61;69.92;100650.22;4962567;28;20051;-39
2022/09/25 07:46:54;;;;;;;3.30;0.82;;;;;;;10.70;70.02;100656.34;4966808;28;20055;-39
2022/09/25 07:49:20;;;;;;;1.55;0.80;;;;;;;10.77;69.85;100653.78;4966836;28;20046;-39
2022/09/25 07:51:47;;;;;;;2.17;0.70;;;;;;;10.88;69.90;100655.59;4968189;28;20133;-40
2022/09/25 07:54:13;;;;;;;4.28;1.20;;;;;;;10.98;69.10;100657.34;4968101;28;20117;-41
2022/09/25 07:56:40;;;;;;;5.10;1.55;;;;;;;11.12;69.39;100656.56;4968365;28;20137;-39
2022/09/25 07:59:06;;;;;;;3.05;0.90;;;;;;;11.28;69.67;100650.59;4965382;28;20120;-39
2022/09/25 08:01:33;;;;;;;3.67;0.70;;;;;;;11.42;69.46;100647.19;4966916;28;20047;-39
2022/09/25 08:04:06;;;;;;;1.95;0.82;;;;;;;11.56;68.24;100645.47;4966271;28;20112;-40
2022/09/25 08:06:34;;;;;;;3.88;0.70;;;;;;;11.68;68.75;100648.97;4962433;28;20153;-39
2022/09/25 08:09:01;;;;;;;3.78;0.75;;;;;;;11.78;68.92;100650.72;4947763;28;20070;-41
2022/09/25 08:11:33;;;;;;;7.38;1.05;;;;;;;11.88;68.24;100651.63;4943366;28;20067;-41
2022/09/25 08:14:00;;;;;;;2.20;0.65;;;;;;;11.98;68.46;100657.69;4947955;28;20067;-42
2022/09/25 08:16:27;;;;;;;3.80;1.40;;;;;;;12.06;68.21;100650.78;4948475;28;20047;-38
2022/09/25 08:18:53;;;;;;;3.85;1.20;;;;;;;12.16;67.53;100651.66;4942664;28;20598;-42
2022/09/25 08:21:20;;;;;;;6.40;0.85;;;;;;;12.26;66.93;100652.53;4950649;28;20428;-39
2022/09/25 08:23:50;;;;;;;3.47;0.90;;;;;;;12.34;68.03;100662.94;4944912;28;20082;-43
2022/09/25 08:26:17;;;;;;;4.10;1.17;;;;;;;12.42;67.14;100657.72;4949432;28;20050;-42
2022/09/25 08:28:44;;;;;;;4.40;0.90;;;;;;;12.51;67.47;100662.94;4948026;28;20685;-39
2022/09/25 08:31:13;;;;;;;3.95;0.60;;;;;;;12.61;67.12;100658.59;4948914;28;20139;-41
2022/09/25 08:33:45;;;;;;;1.95;0.65;;;;;;;12.73;67.45;100657.69;4980308;28;20051;-39
2022/09/25 08:36:12;;;;;;;3.13;1.10;;;;;;;12.85;66.42;100657.69;4950318;28;20055;-38
2022/09/25 08:38:39;;;;;;;3.70;0.98;;;;;;;12.98;66.04;100650.69;4949682;28;20135;-40
2022/09/25 08:41:30;;;;;;;3.28;1.00;;;;;;;13.10;66.06;100656.72;4947255;28;20679;-39
2022/09/25 08:49:11;;;;;;;2.83;1.48;;;;;;;13.59;63.99;100658.28;5047002;27;20419;-39
2022/09/25 08:51:43;;;;;;;2.47;1.95;;;;;;;13.65;63.66;100660.00;5019131;28;20127;-42
2022/09/25 08:54:18;;;;;;;4.15;1.67;;;;;;;13.69;63.80;100658.22;5008300;28;20046;-40
2022/09/25 08:56:47;;;;;;;3.03;1.85;;;;;;;13.75;63.83;100653.00;5021495;28;20049;-38
2022/09/25 08:59:25;;;;;;;2.45;2.20;;;;;;;13.82;63.98;100651.22;5022472;28;20077;-41
2022/09/25 09:01:58;;;;;;;4.35;2.38;;;;;;;13.91;63.42;100651.13;5020548;28;20041;-39
2022/09/25 09:07:10;;;;;;;3.53;0.93;;;;;;;14.17;62.89;100641.41;5046312;28;20402;-40
2022/09/25 09:12:46;;;;;;;3.67;1.15;;;;;;;14.77;61.80;100647.84;5056785;28;20902;-41
2022/09/25 09:17:54;;;;;;;3.45;0.80;;;;;;;15.32;59.88;100635.03;5079465;27;20413;-41
2022/09/25 09:20:32;;;;;;;1.80;0.90;;;;;;;15.50;59.79;100643.50;5006801;28;20104;-43
2022/09/25 09:22:59;;;;;;;1.35;0.65;;;;;;;15.61;59.14;100636.38;5014917;28;20049;-40
2022/09/25 09:25:34;;;;;;;3.10;0.57;;;;;;;15.63;58.24;100634.59;5020957;28;20600;-39
2022/09/25 09:41:32;;;;;;;2.33;1.80;;;;;;;16.19;56.52;100627.69;5008880;28;20414;-40
2022/09/25 09:50:08;;;;;;;2.88;1.15;;;;;;;16.74;52.69;100616.25;5062940;27;20964;-41
2022/09/25 09:52:38;;;;;;;2.55;1.85;;;;;;;16.93;53.29;100614.97;5034987;28;20100;-41
2022/09/25 09:55:25;;;;;;;1.67;1.48;;;;;;;17.07;52.98;100616.50;5041251;28;20079;-40
2022/09/25 09:57:56;;;;;;;3.17;2.55;;;;;;;17.14;52.48;100612.88;5055874;28;20049;-40
2022/09/25 10:00:23;;;;;;;3.45;2.33;;;;;;;17.27;52.99;100607.34;5053903;28;20077;-42
2022/09/25 10:05:42;;;;;;;1.40;0.47;;;;;;;17.70;52.10;100603.75;5013573;27;20431;-43
2022/09/25 10:08:09;;;;;;;3.20;0.80;;;;;;;17.93;51.23;100610.22;5001376;28;20092;-39
2022/09/25 10:10:39;;;;;;;2.35;0.68;;;;;;;18.04;51.35;100609.09;5001866;28;20055;-40
2022/09/25 10:13:31;;;;;;;3.67;0.73;;;;;;;17.95;49.70;100600.56;5003619;28;20765;-42
2022/09/25 10:21:41;;;;;;;5.38;0.95;;;;;;;17.62;50.53;100597.84;5053019;28;20404;-42
2022/09/25 10:24:07;;;;;;;0.90;0.63;;;;;;;17.55;49.67;100585.78;5021078;28;20153;-43
2022/09/25 10:26:36;;;;;;;4.03;1.65;;;;;;;17.61;50.34;100583.03;5018064;28;20568;-43
2022/09/25 10:29:25;;;;;;;2.88;0.82;;;;;;;17.92;50.21;100579.66;5021457;28;20045;-40
2022/09/25 10:32:02;;;;;;;2.33;0.80;;;;;;;18.24;49.75;100574.53;5020287;28;20132;-40
2022/09/25 10:34:30;;;;;;;3.17;0.85;;;;;;;18.37;49.12;100575.03;5017280;28;20050;-42
2022/09/25 10:36:57;;;;;;;1.83;0.73;;;;;;;18.49;48.91;100569.50;5016350;28;20081;-41
2022/09/25 10:39:30;;;;;;;2.92;1.77;;;;;;;18.55;49.50;100557.09;5011528;28;20566;-41
2022/09/25 10:42:39;;;;;;;3.00;0.98;;;;;;;18.54;47.15;100555.38;5016827;28;20088;-43
2022/09/25 10:51:03;;;;;;;7.25;3.22;;;;;;;18.31;47.57;100535.91;5020736;28;20046;-40
2022/09/25 10:53:30;;;;;;;4.45;3.08;;;;;;;18.31;48.96;100531.50;5021351;28;20520;-40
2022/09/25 10:56:08;;;;;;;11.73;2.22;;;;;;;18.34;48.55;100530.56;5021722;28;20125;-41
2022/09/25 10:58:56;;;;;;;3.45;2.40;;;;;;;18.38;48.12;100524.34;5018683;28;20053;-44
2022/09/25 11:01:33;;;;;;;12.05;1.52;;;;;;;18.47;48.57;100521.44;5013107;28;20656;-45
2022/09/25 11:04:06;;;;;;;2.08;1.92;;;;;;;18.56;48.44;100512.47;5012561;28;20057;-42
2022/09/25 11:06:34;;;;;;;0.88;0.43;;;;;;;18.64;47.99;100520.09;5019864;28;20603;-43
2022/09/25 11:11:39;;;;;;;1.77;0.52;;;;;;;18.81;48.06;100513.53;5011742;27;20401;-39
2022/09/25 11:14:31;;;;;;;1.88;0.50;;;;;;;18.93;47.67;100512.28;4999511;28;20061;-41
2022/09/25 11:17:03;;;;;;;1.70;0.70;;;;;;;19.02;47.46;100515.47;4999953;28;20050;-41
2022/09/25 11:19:33;;;;;;;0.52;0.30;;;;;;;19.11;46.72;100509.13;4998460;28;20096;-39
2022/09/25 11:27:55;;;;;;;14.00;5.40;;;;;;;19.15;45.39;100494.13;5048262;28;20411;-39
2022/09/25 11:30:22;;;;;;;2.70;2.50;;;;;;;19.10;45.24;100496.03;4993263;28;20542;-42
2022/09/25 11:33:14;;;;;;;1.70;1.55;;;;;;;19.05;44.83;100496.16;4979279;28;20464;-38
2022/09/25 11:41:50;;;;;;;1.38;0.43;;;;;;;18.92;45.22;100493.06;5010998;28;20057;-41
2022/09/25 11:44:33;;;;;;;0.88;0.52;;;;;;;18.82;44.53;100484.63;5020594;28;20081;-37
2022/09/25 11:47:10;;;;;;;1.13;0.73;;;;;;;18.78;45.71;100485.59;5021046;28;20050;-41
2022/09/25 11:55:35;;;;;;;0.85;0.60;;;;;;;18.79;45.48;100470.72;5028127;28;20921;-44
2022/09/25 12:00:53;;;;;;;0.77;0.47;;;;;;;18.71;43.71;100448.19;5050009;28;20898;-45
2022/09/25 12:11:36;;;;;;;9.15;1.35;;;;;;;18.79;44.65;100444.47;5077230;27;20406;-41
2022/09/25 12:25:52;;;;;;;0.93;0.45;;;;;;;18.72;43.69;100428.06;5042380;27;20422;-44
2022/09/25 12:28:45;;;;;;;1.20;0.55;;;;;;;18.74;43.87;100415.75;5017941;28;20069;-43
2022/09/25 12:36:44;;;;;;;0.93;0.90;;;;;;;18.57;42.00;100409.25;5085400;27;20416;-42
2022/09/25 12:39:36;;;;;;;0.85;0.68;;;;;;;18.43;42.57;100407.06;5055285;28;20507;-43
2022/09/25 12:47:40;;;;;;;0.82;0.70;;;;;;;18.35;42.49;100382.84;5053491;27;20402;-43
2022/09/25 12:53:10;;;;;;;1.40;0.60;;;;;;;18.47;44.00;100387.69;5057316;27;20497;-42
2022/09/25 12:55:44;;;;;;;0.98;0.50;;;;;;;18.52;43.08;100390.19;5044791;28;20068;-42
2022/09/25 12:58:31;;;;;;;1.20;0.63;;;;;;;18.55;43.68;100378.75;5044606;28;20065;-45
2022/09/25 13:01:08;;;;;;;1.80;0.52;;;;;;;18.62;43.65;100382.91;5043081;28;20791;-42
2022/09/25 13:03:53;;;;;;;2.30;1.05;;;;;;;18.60;44.20;100376.81;5036097;28;20053;-42
2022/09/25 13:06:32;;;;;;;2.17;0.95;;;;;;;18.53;43.09;100373.53;5036062;28;20152;-41
2022/09/25 13:12:09;;;;;;;2.47;2.08;;;;;;;18.29;43.14;100367.28;5042979;27;20416;-43
2022/09/25 13:14:43;;;;;;;2.33;2.13;;;;;;;18.22;43.70;100363.97;5023062;28;20549;-44
2022/09/25 13:17:12;;;;;;;2.47;1.00;;;;;;;18.12;43.25;100350.28;5022861;28;20423;-44
2022/09/25 13:19:39;;;;;;;1.23;0.50;;;;;;;18.08;43.54;100354.75;5023137;28;20436;-42
2022/09/25 13:25:15;;;;;;;0.95;0.40;;;;;;;17.99;44.27;100348.00;5082235;27;20785;-46
2022/09/25 13:27:44;;;;;;;3.20;1.08;;;;;;;18.05;43.75;100343.47;5022240;28;20050;-41
2022/09/25 13:30:22;;;;;;;1.35;0.82;;;;;;;18.05;44.43;100349.59;5014031;28;20446;-43
2022/09/25 13:32:51;;;;;;;3.63;0.60;;;;;;;18.09;45.31;100339.88;5017571;28;20136;-44
2022/09/25 13:35:21;;;;;;;0.88;0.75;;;;;;;18.13;44.88;100338.88;5016637;28;20068;-45
2022/09/25 13:37:50;;;;;;;1.50;0.65;;;;;;;18.17;44.52;100332.66;5019041;28;20123;-43
2022/09/25 13:49:33;;;;;;;2.15;0.60;;;;;;;18.08;44.58;100330.28;5061727;27;20401;-43
2022/09/25 13:52:00;;;;;;;1.88;0.50;;;;;;;18.16;44.73;100324.81;5027690;28;20134;-42
2022/09/25 13:54:27;;;;;;;1.88;0.30;;;;;;;18.20;45.10;100316.84;5006747;28;20056;-42
2022/09/25 13:56:54;;;;;;;1.35;0.50;;;;;;;18.23;45.07;100305.41;5036223;28;20037;-43
2022/09/25 13:59:38;;;;;;;1.13;0.28;;;;;;;18.24;44.53;100307.97;5033277;28;20415;-46
2022/09/25 14:02:32;;;;;;;1.05;0.30;;;;;;;18.22;44.97;100299.31;5031569;28;20060;-43
2022/09/25 14:04:59;;;;;;;1.15;0.50;;;;;;;18.34;44.83;100299.84;5049411;28;20041;-42
2022/09/25 14:07:27;;;;;;;1.25;0.60;;;;;;;18.34;44.43;100297.22;5034983;28;20124;-45
2022/09/25 14:09:56;;;;;;;1.10;0.60;;;;;;;18.32;45.19;100297.25;5037007;28;20107;-42
2022/09/25 14:12:45;;;;;;;1.88;0.40;;;;;;;18.23;43.86;100295.78;5034007;28;20132;-46
2022/09/25 14:15:20;;;;;;;1.50;0.57;;;;;;;18.20;44.19;100298.50;5032984;28;20403;-42
2022/09/25 14:17:51;;;;;;;1.13;0.60;;;;;;;18.16;44.39;100304.72;5034594;28;20149;-42
2022/09/25 14:20:32;;;;;;;2.03;0.60;;;;;;;18.08;44.08;100301.44;5037160;28;20138;-44
2022/09/25 14:23:04;;;;;;;0.88;0.65;;;;;;;18.06;45.17;100303.25;5031815;28;20087;-42
2022/09/25 14:25:36;;;;;;;2.00;0.90;;;;;;;18.05;45.18;100301.53;5038020;28;20110;-42
2022/09/25 14:28:17;;;;;;;2.72;0.50;;;;;;;17.97;44.54;100294.75;5035790;28;20050;-42